sensor_id;sensor_type;location;lat;lon;timestamp;P1;durP1;ratioP1;P2;durP2;ratioP2
16093;SDS011;8151;47.824;12.092;2024-03-08T00:00:21;15.67;;;10.13;;
16093;SDS011;8151;47.824;12.092;2024-03-08T00:02:49;16.63;;;9.63;;
16093;SDS011;8151;47.824;12.092;2024-03-08T00:05:18;15.33;;;9.70;;
16093;SDS011;8151;47.824;12.092;2024-03-08T00:07:47;13.60;;;9.07;;
16093;SDS011;8151;47.824;12.092;2024-03-08T00:10:15;18.43;;;10.20;;
16093;SDS011;8151;47.824;12.092;2024-03-08T00:12:45;13.13;;;9.47;;
16093;SDS011;8151;47.824;12.092;2024-03-08T00:15:14;15.80;;;10.10;;
16093;SDS011;8151;47.824;12.092;2024-03-08T00:17:47;14.23;;;9.07;;
16093;SDS011;8151;47.824;12.092;2024-03-08T00:20:16;14.10;;;9.03;;
16093;SDS011;8151;47.824;12.092;2024-03-08T00:22:46;18.03;;;9.03;;
16093;SDS011;8151;47.824;12.092;2024-03-08T00:25:15;13.43;;;8.67;;
16093;SDS011;8151;47.824;12.092;2024-03-08T00:27:44;13.63;;;8.97;;
16093;SDS011;8151;47.824;12.092;2024-03-08T00:30:12;12.30;;;8.00;;
16093;SDS011;8151;47.824;12.092;2024-03-08T00:32:41;14.27;;;9.37;;
16093;SDS011;8151;47.824;12.092;2024-03-08T00:35:11;14.27;;;8.73;;
16093;SDS011;8151;47.824;12.092;2024-03-08T00:37:40;14.57;;;8.47;;
16093;SDS011;8151;47.824;12.092;2024-03-08T00:40:09;12.20;;;7.87;;
16093;SDS011;8151;47.824;12.092;2024-03-08T00:42:38;13.73;;;9.10;;
16093;SDS011;8151;47.824;12.092;2024-03-08T00:45:08;18.07;;;9.80;;
16093;SDS011;8151;47.824;12.092;2024-03-08T00:47:38;12.00;;;8.20;;
16093;SDS011;8151;47.824;12.092;2024-03-08T00:50:09;14.67;;;8.77;;
16093;SDS011;8151;47.824;12.092;2024-03-08T00:52:39;13.60;;;8.77;;
16093;SDS011;8151;47.824;12.092;2024-03-08T00:55:08;14.57;;;9.00;;
16093;SDS011;8151;47.824;12.092;2024-03-08T00:57:37;16.80;;;8.97;;
16093;SDS011;8151;47.824;12.092;2024-03-08T01:00:07;15.47;;;9.70;;
16093;SDS011;8151;47.824;12.092;2024-03-08T01:02:39;14.03;;;8.83;;
16093;SDS011;8151;47.824;12.092;2024-03-08T01:05:08;16.37;;;8.97;;
16093;SDS011;8151;47.824;12.092;2024-03-08T01:07:36;17.57;;;9.73;;
16093;SDS011;8151;47.824;12.092;2024-03-08T01:10:07;14.40;;;9.50;;
16093;SDS011;8151;47.824;12.092;2024-03-08T01:12:37;18.37;;;9.77;;
16093;SDS011;8151;47.824;12.092;2024-03-08T01:15:06;15.63;;;8.93;;
16093;SDS011;8151;47.824;12.092;2024-03-08T01:17:36;17.97;;;10.47;;
16093;SDS011;8151;47.824;12.092;2024-03-08T01:20:05;13.53;;;9.47;;
16093;SDS011;8151;47.824;12.092;2024-03-08T01:22:37;16.00;;;9.30;;
16093;SDS011;8151;47.824;12.092;2024-03-08T01:25:08;13.67;;;8.87;;
16093;SDS011;8151;47.824;12.092;2024-03-08T01:27:36;17.00;;;9.97;;
16093;SDS011;8151;47.824;12.092;2024-03-08T01:30:05;13.70;;;9.13;;
16093;SDS011;8151;47.824;12.092;2024-03-08T01:32:37;16.73;;;10.47;;
16093;SDS011;8151;47.824;12.092;2024-03-08T01:35:06;17.90;;;10.97;;
16093;SDS011;8151;47.824;12.092;2024-03-08T01:37:36;14.27;;;9.23;;
16093;SDS011;8151;47.824;12.092;2024-03-08T01:40:05;18.63;;;10.50;;
16093;SDS011;8151;47.824;12.092;2024-03-08T01:42:36;16.47;;;10.73;;
16093;SDS011;8151;47.824;12.092;2024-03-08T01:45:05;16.83;;;10.03;;
16093;SDS011;8151;47.824;12.092;2024-03-08T01:47:35;16.73;;;9.87;;
16093;SDS011;8151;47.824;12.092;2024-03-08T01:50:04;17.30;;;9.80;;
16093;SDS011;8151;47.824;12.092;2024-03-08T01:52:34;15.57;;;9.60;;
16093;SDS011;8151;47.824;12.092;2024-03-08T01:55:04;15.23;;;9.27;;
16093;SDS011;8151;47.824;12.092;2024-03-08T01:57:36;15.30;;;8.77;;
16093;SDS011;8151;47.824;12.092;2024-03-08T02:00:05;13.80;;;8.77;;
16093;SDS011;8151;47.824;12.092;2024-03-08T02:02:37;14.00;;;8.73;;
16093;SDS011;8151;47.824;12.092;2024-03-08T02:05:11;13.47;;;8.67;;
16093;SDS011;8151;47.824;12.092;2024-03-08T02:07:40;17.83;;;10.50;;
16093;SDS011;8151;47.824;12.092;2024-03-08T02:10:10;23.90;;;11.47;;
16093;SDS011;8151;47.824;12.092;2024-03-08T02:12:41;19.87;;;10.30;;
16093;SDS011;8151;47.824;12.092;2024-03-08T02:15:09;22.33;;;10.97;;
16093;SDS011;8151;47.824;12.092;2024-03-08T02:17:38;56.73;;;11.60;;
16093;SDS011;8151;47.824;12.092;2024-03-08T02:20:07;23.73;;;11.37;;
16093;SDS011;8151;47.824;12.092;2024-03-08T02:22:39;190.67;;;13.73;;
16093;SDS011;8151;47.824;12.092;2024-03-08T02:25:08;81.17;;;10.43;;
16093;SDS011;8151;47.824;12.092;2024-03-08T02:27:37;16.90;;;9.43;;
16093;SDS011;8151;47.824;12.092;2024-03-08T02:30:06;77.27;;;11.10;;
16093;SDS011;8151;47.824;12.092;2024-03-08T02:32:36;16.33;;;9.20;;
16093;SDS011;8151;47.824;12.092;2024-03-08T02:35:05;153.87;;;11.03;;
16093;SDS011;8151;47.824;12.092;2024-03-08T02:37:34;16.77;;;8.93;;
16093;SDS011;8151;47.824;12.092;2024-03-08T02:40:04;86.40;;;10.37;;
16093;SDS011;8151;47.824;12.092;2024-03-08T02:42:34;16.33;;;10.00;;
16093;SDS011;8151;47.824;12.092;2024-03-08T02:45:02;18.27;;;9.43;;
16093;SDS011;8151;47.824;12.092;2024-03-08T02:47:32;15.37;;;9.47;;
16093;SDS011;8151;47.824;12.092;2024-03-08T02:50:02;22.10;;;10.93;;
16093;SDS011;8151;47.824;12.092;2024-03-08T02:52:31;16.80;;;10.43;;
16093;SDS011;8151;47.824;12.092;2024-03-08T02:55:00;15.77;;;9.60;;
16093;SDS011;8151;47.824;12.092;2024-03-08T02:57:30;14.73;;;9.33;;
16093;SDS011;8151;47.824;12.092;2024-03-08T02:59:58;17.00;;;9.87;;
16093;SDS011;8151;47.824;12.092;2024-03-08T03:02:27;14.93;;;8.63;;
16093;SDS011;8151;47.824;12.092;2024-03-08T03:04:56;15.40;;;9.20;;
16093;SDS011;8151;47.824;12.092;2024-03-08T03:07:25;15.43;;;9.57;;
16093;SDS011;8151;47.824;12.092;2024-03-08T03:09:54;12.37;;;8.50;;
16093;SDS011;8151;47.824;12.092;2024-03-08T03:12:23;14.23;;;9.40;;
16093;SDS011;8151;47.824;12.092;2024-03-08T03:14:52;12.80;;;8.97;;
16093;SDS011;8151;47.824;12.092;2024-03-08T03:17:21;16.07;;;9.23;;
16093;SDS011;8151;47.824;12.092;2024-03-08T03:19:49;16.87;;;10.10;;
16093;SDS011;8151;47.824;12.092;2024-03-08T03:22:18;15.30;;;9.20;;
16093;SDS011;8151;47.824;12.092;2024-03-08T03:24:47;13.37;;;8.60;;
16093;SDS011;8151;47.824;12.092;2024-03-08T03:27:16;13.30;;;8.63;;
16093;SDS011;8151;47.824;12.092;2024-03-08T03:29:45;12.50;;;9.00;;
16093;SDS011;8151;47.824;12.092;2024-03-08T03:32:14;15.67;;;8.90;;
16093;SDS011;8151;47.824;12.092;2024-03-08T03:34:45;13.77;;;9.00;;
16093;SDS011;8151;47.824;12.092;2024-03-08T03:37:13;14.33;;;7.67;;
16093;SDS011;8151;47.824;12.092;2024-03-08T03:39:44;13.37;;;8.47;;
16093;SDS011;8151;47.824;12.092;2024-03-08T03:42:16;14.47;;;8.47;;
16093;SDS011;8151;47.824;12.092;2024-03-08T03:44:45;14.70;;;8.90;;
16093;SDS011;8151;47.824;12.092;2024-03-08T03:47:16;13.27;;;8.67;;
16093;SDS011;8151;47.824;12.092;2024-03-08T03:49:44;14.77;;;8.93;;
16093;SDS011;8151;47.824;12.092;2024-03-08T03:52:13;13.93;;;8.37;;
16093;SDS011;8151;47.824;12.092;2024-03-08T03:54:42;14.90;;;8.80;;
16093;SDS011;8151;47.824;12.092;2024-03-08T03:57:10;14.53;;;8.60;;
16093;SDS011;8151;47.824;12.092;2024-03-08T03:59:40;17.07;;;8.97;;
16093;SDS011;8151;47.824;12.092;2024-03-08T04:02:08;13.53;;;9.00;;
16093;SDS011;8151;47.824;12.092;2024-03-08T04:04:38;12.67;;;8.47;;
16093;SDS011;8151;47.824;12.092;2024-03-08T04:07:07;14.60;;;9.07;;
16093;SDS011;8151;47.824;12.092;2024-03-08T04:09:37;15.53;;;9.07;;
16093;SDS011;8151;47.824;12.092;2024-03-08T04:12:06;13.13;;;8.47;;
16093;SDS011;8151;47.824;12.092;2024-03-08T04:14:38;18.17;;;9.03;;
16093;SDS011;8151;47.824;12.092;2024-03-08T04:17:09;14.60;;;8.63;;
16093;SDS011;8151;47.824;12.092;2024-03-08T04:19:40;14.80;;;8.40;;
16093;SDS011;8151;47.824;12.092;2024-03-08T04:22:08;16.63;;;9.27;;
16093;SDS011;8151;47.824;12.092;2024-03-08T04:24:37;14.33;;;9.27;;
16093;SDS011;8151;47.824;12.092;2024-03-08T04:27:06;13.70;;;9.00;;
16093;SDS011;8151;47.824;12.092;2024-03-08T04:29:36;15.67;;;9.57;;
16093;SDS011;8151;47.824;12.092;2024-03-08T04:32:05;15.20;;;9.57;;
16093;SDS011;8151;47.824;12.092;2024-03-08T04:34:35;14.37;;;9.60;;
16093;SDS011;8151;47.824;12.092;2024-03-08T04:37:05;14.63;;;9.00;;
16093;SDS011;8151;47.824;12.092;2024-03-08T04:39:33;16.23;;;9.53;;
16093;SDS011;8151;47.824;12.092;2024-03-08T04:42:02;12.70;;;8.47;;
16093;SDS011;8151;47.824;12.092;2024-03-08T04:44:33;18.03;;;9.10;;
16093;SDS011;8151;47.824;12.092;2024-03-08T04:47:02;13.87;;;8.73;;
16093;SDS011;8151;47.824;12.092;2024-03-08T04:49:31;13.07;;;8.37;;
16093;SDS011;8151;47.824;12.092;2024-03-08T04:52:01;13.77;;;8.23;;
16093;SDS011;8151;47.824;12.092;2024-03-08T04:54:32;14.33;;;9.00;;
16093;SDS011;8151;47.824;12.092;2024-03-08T04:57:01;18.17;;;8.50;;
16093;SDS011;8151;47.824;12.092;2024-03-08T04:59:35;13.37;;;8.40;;
16093;SDS011;8151;47.824;12.092;2024-03-08T05:02:03;12.57;;;8.20;;
16093;SDS011;8151;47.824;12.092;2024-03-08T05:04:32;14.77;;;9.07;;
16093;SDS011;8151;47.824;12.092;2024-03-08T05:07:00;14.87;;;8.90;;
16093;SDS011;8151;47.824;12.092;2024-03-08T05:09:29;14.33;;;7.87;;
16093;SDS011;8151;47.824;12.092;2024-03-08T05:12:00;15.00;;;8.53;;
16093;SDS011;8151;47.824;12.092;2024-03-08T05:14:29;12.47;;;7.87;;
16093;SDS011;8151;47.824;12.092;2024-03-08T05:16:57;13.40;;;8.27;;
16093;SDS011;8151;47.824;12.092;2024-03-08T05:19:28;17.17;;;8.37;;
16093;SDS011;8151;47.824;12.092;2024-03-08T05:22:01;16.00;;;8.43;;
16093;SDS011;8151;47.824;12.092;2024-03-08T05:24:30;13.67;;;8.53;;
16093;SDS011;8151;47.824;12.092;2024-03-08T05:26:58;16.13;;;9.07;;
16093;SDS011;8151;47.824;12.092;2024-03-08T05:29:29;20.03;;;12.47;;
16093;SDS011;8151;47.824;12.092;2024-03-08T05:31:58;24.67;;;13.27;;
16093;SDS011;8151;47.824;12.092;2024-03-08T05:34:26;16.50;;;9.77;;
16093;SDS011;8151;47.824;12.092;2024-03-08T05:36:55;12.63;;;8.90;;
16093;SDS011;8151;47.824;12.092;2024-03-08T05:39:25;14.83;;;9.37;;
16093;SDS011;8151;47.824;12.092;2024-03-08T05:41:53;16.03;;;9.20;;
16093;SDS011;8151;47.824;12.092;2024-03-08T05:44:23;16.80;;;9.07;;
16093;SDS011;8151;47.824;12.092;2024-03-08T05:46:53;16.93;;;10.20;;
16093;SDS011;8151;47.824;12.092;2024-03-08T05:49:22;20.97;;;11.83;;
16093;SDS011;8151;47.824;12.092;2024-03-08T05:51:51;17.30;;;10.90;;
16093;SDS011;8151;47.824;12.092;2024-03-08T05:54:21;17.57;;;9.53;;
16093;SDS011;8151;47.824;12.092;2024-03-08T05:56:52;16.93;;;9.80;;
16093;SDS011;8151;47.824;12.092;2024-03-08T05:59:21;14.87;;;9.63;;
16093;SDS011;8151;47.824;12.092;2024-03-08T06:01:50;15.13;;;8.77;;
16093;SDS011;8151;47.824;12.092;2024-03-08T06:04:20;15.10;;;9.33;;
16093;SDS011;8151;47.824;12.092;2024-03-08T06:06:49;14.93;;;9.27;;
16093;SDS011;8151;47.824;12.092;2024-03-08T06:09:18;16.87;;;9.93;;
16093;SDS011;8151;47.824;12.092;2024-03-08T06:11:51;16.30;;;9.50;;
16093;SDS011;8151;47.824;12.092;2024-03-08T06:14:21;14.80;;;9.17;;
16093;SDS011;8151;47.824;12.092;2024-03-08T06:16:50;15.63;;;9.87;;
16093;SDS011;8151;47.824;12.092;2024-03-08T06:19:18;16.63;;;9.53;;
16093;SDS011;8151;47.824;12.092;2024-03-08T06:21:48;26.63;;;13.87;;
16093;SDS011;8151;47.824;12.092;2024-03-08T06:24:17;18.27;;;11.93;;
16093;SDS011;8151;47.824;12.092;2024-03-08T06:26:46;17.77;;;10.23;;
16093;SDS011;8151;47.824;12.092;2024-03-08T06:29:15;19.83;;;11.43;;
16093;SDS011;8151;47.824;12.092;2024-03-08T06:31:44;18.53;;;10.87;;
16093;SDS011;8151;47.824;12.092;2024-03-08T06:34:12;16.53;;;10.37;;
16093;SDS011;8151;47.824;12.092;2024-03-08T06:36:42;17.27;;;10.13;;
16093;SDS011;8151;47.824;12.092;2024-03-08T06:39:12;14.93;;;9.00;;
16093;SDS011;8151;47.824;12.092;2024-03-08T06:41:40;17.80;;;10.17;;
16093;SDS011;8151;47.824;12.092;2024-03-08T06:44:11;16.37;;;10.33;;
16093;SDS011;8151;47.824;12.092;2024-03-08T06:46:39;15.93;;;9.97;;
16093;SDS011;8151;47.824;12.092;2024-03-08T06:49:08;14.43;;;9.17;;
16093;SDS011;8151;47.824;12.092;2024-03-08T06:51:38;14.73;;;9.73;;
16093;SDS011;8151;47.824;12.092;2024-03-08T06:54:07;15.50;;;9.13;;
16093;SDS011;8151;47.824;12.092;2024-03-08T06:56:37;16.00;;;10.00;;
16093;SDS011;8151;47.824;12.092;2024-03-08T06:59:06;16.67;;;9.87;;
16093;SDS011;8151;47.824;12.092;2024-03-08T07:01:40;14.87;;;8.93;;
16093;SDS011;8151;47.824;12.092;2024-03-08T07:04:08;15.60;;;9.97;;
16093;SDS011;8151;47.824;12.092;2024-03-08T07:06:38;16.07;;;8.93;;
16093;SDS011;8151;47.824;12.092;2024-03-08T07:09:07;17.50;;;10.60;;
16093;SDS011;8151;47.824;12.092;2024-03-08T07:11:37;14.17;;;8.57;;
16093;SDS011;8151;47.824;12.092;2024-03-08T07:14:11;18.17;;;10.47;;
16093;SDS011;8151;47.824;12.092;2024-03-08T07:16:42;13.70;;;8.33;;
16093;SDS011;8151;47.824;12.092;2024-03-08T07:19:11;13.73;;;9.40;;
16093;SDS011;8151;47.824;12.092;2024-03-08T07:21:40;15.97;;;10.07;;
16093;SDS011;8151;47.824;12.092;2024-03-08T07:24:08;17.50;;;9.90;;
16093;SDS011;8151;47.824;12.092;2024-03-08T07:27:01;15.23;;;10.00;;
16093;SDS011;8151;47.824;12.092;2024-03-08T07:29:32;12.63;;;8.87;;
16093;SDS011;8151;47.824;12.092;2024-03-08T07:32:00;16.40;;;9.10;;
16093;SDS011;8151;47.824;12.092;2024-03-08T07:34:39;12.27;;;8.27;;
16093;SDS011;8151;47.824;12.092;2024-03-08T07:37:07;17.83;;;10.03;;
16093;SDS011;8151;47.824;12.092;2024-03-08T07:39:37;17.30;;;9.70;;
16093;SDS011;8151;47.824;12.092;2024-03-08T07:42:08;19.27;;;11.10;;
16093;SDS011;8151;47.824;12.092;2024-03-08T07:44:37;16.87;;;10.63;;
16093;SDS011;8151;47.824;12.092;2024-03-08T07:47:05;17.83;;;10.10;;
16093;SDS011;8151;47.824;12.092;2024-03-08T07:49:36;16.13;;;9.47;;
16093;SDS011;8151;47.824;12.092;2024-03-08T07:52:05;16.23;;;9.20;;
16093;SDS011;8151;47.824;12.092;2024-03-08T07:54:34;14.50;;;9.27;;
16093;SDS011;8151;47.824;12.092;2024-03-08T07:57:03;13.80;;;9.03;;
16093;SDS011;8151;47.824;12.092;2024-03-08T07:59:33;18.83;;;9.63;;
16093;SDS011;8151;47.824;12.092;2024-03-08T08:02:01;13.93;;;9.27;;
16093;SDS011;8151;47.824;12.092;2024-03-08T08:04:31;16.73;;;8.73;;
16093;SDS011;8151;47.824;12.092;2024-03-08T08:06:59;13.20;;;8.13;;
16093;SDS011;8151;47.824;12.092;2024-03-08T08:09:28;14.63;;;8.80;;
16093;SDS011;8151;47.824;12.092;2024-03-08T08:12:01;15.53;;;9.90;;
16093;SDS011;8151;47.824;12.092;2024-03-08T08:14:30;14.70;;;8.60;;
16093;SDS011;8151;47.824;12.092;2024-03-08T08:17:00;14.20;;;9.30;;
16093;SDS011;8151;47.824;12.092;2024-03-08T08:19:31;13.47;;;8.60;;
16093;SDS011;8151;47.824;12.092;2024-03-08T08:22:00;13.60;;;9.03;;
16093;SDS011;8151;47.824;12.092;2024-03-08T08:24:28;14.43;;;8.90;;
16093;SDS011;8151;47.824;12.092;2024-03-08T08:26:57;18.63;;;9.30;;
16093;SDS011;8151;47.824;12.092;2024-03-08T08:29:26;15.00;;;8.63;;
16093;SDS011;8151;47.824;12.092;2024-03-08T08:31:54;13.77;;;9.00;;
16093;SDS011;8151;47.824;12.092;2024-03-08T08:34:29;16.13;;;9.33;;
16093;SDS011;8151;47.824;12.092;2024-03-08T08:36:58;16.20;;;9.50;;
16093;SDS011;8151;47.824;12.092;2024-03-08T08:39:27;13.53;;;8.57;;
16093;SDS011;8151;47.824;12.092;2024-03-08T08:41:56;13.73;;;8.57;;
16093;SDS011;8151;47.824;12.092;2024-03-08T08:44:24;16.37;;;9.50;;
16093;SDS011;8151;47.824;12.092;2024-03-08T08:46:54;18.03;;;8.20;;
16093;SDS011;8151;47.824;12.092;2024-03-08T08:49:33;14.50;;;9.17;;
16093;SDS011;8151;47.824;12.092;2024-03-08T08:52:02;11.80;;;8.63;;
16093;SDS011;8151;47.824;12.092;2024-03-08T08:54:42;12.23;;;8.20;;
16093;SDS011;8151;47.824;12.092;2024-03-08T08:57:16;15.40;;;8.57;;
16093;SDS011;8151;47.824;12.092;2024-03-08T08:59:45;12.77;;;7.83;;
16093;SDS011;8151;47.824;12.092;2024-03-08T09:02:13;11.80;;;8.00;;
16093;SDS011;8151;47.824;12.092;2024-03-08T09:04:46;11.03;;;7.60;;
16093;SDS011;8151;47.824;12.092;2024-03-08T09:07:14;17.90;;;6.97;;
16093;SDS011;8151;47.824;12.092;2024-03-08T09:09:45;11.57;;;7.30;;
16093;SDS011;8151;47.824;12.092;2024-03-08T09:12:14;12.70;;;7.37;;
16093;SDS011;8151;47.824;12.092;2024-03-08T09:14:43;10.70;;;6.97;;
16093;SDS011;8151;47.824;12.092;2024-03-08T09:17:11;11.67;;;7.23;;
16093;SDS011;8151;47.824;12.092;2024-03-08T09:19:45;11.80;;;7.07;;
16093;SDS011;8151;47.824;12.092;2024-03-08T09:22:14;9.40;;;6.97;;
16093;SDS011;8151;47.824;12.092;2024-03-08T09:24:42;10.83;;;7.50;;
16093;SDS011;8151;47.824;12.092;2024-03-08T09:27:11;12.60;;;6.77;;
16093;SDS011;8151;47.824;12.092;2024-03-08T09:29:40;12.37;;;7.30;;
16093;SDS011;8151;47.824;12.092;2024-03-08T09:32:10;11.93;;;7.13;;
16093;SDS011;8151;47.824;12.092;2024-03-08T09:34:39;10.33;;;7.00;;
16093;SDS011;8151;47.824;12.092;2024-03-08T09:37:09;11.33;;;6.67;;
16093;SDS011;8151;47.824;12.092;2024-03-08T09:39:37;9.37;;;6.87;;
16093;SDS011;8151;47.824;12.092;2024-03-08T09:42:06;13.07;;;7.10;;
16093;SDS011;8151;47.824;12.092;2024-03-08T09:44:34;10.73;;;6.87;;
16093;SDS011;8151;47.824;12.092;2024-03-08T09:47:03;15.87;;;7.10;;
16093;SDS011;8151;47.824;12.092;2024-03-08T09:49:33;8.60;;;6.30;;
16093;SDS011;8151;47.824;12.092;2024-03-08T09:52:05;8.97;;;6.20;;
16093;SDS011;8151;47.824;12.092;2024-03-08T09:54:35;13.63;;;6.73;;
16093;SDS011;8151;47.824;12.092;2024-03-08T09:57:04;11.37;;;6.70;;
16093;SDS011;8151;47.824;12.092;2024-03-08T09:59:36;11.87;;;6.40;;
16093;SDS011;8151;47.824;12.092;2024-03-08T10:02:15;11.13;;;7.37;;
16093;SDS011;8151;47.824;12.092;2024-03-08T10:04:44;15.97;;;7.20;;
16093;SDS011;8151;47.824;12.092;2024-03-08T10:07:15;12.00;;;8.27;;
16093;SDS011;8151;47.824;12.092;2024-03-08T10:09:45;10.63;;;7.17;;
16093;SDS011;8151;47.824;12.092;2024-03-08T10:12:17;9.10;;;6.23;;
16093;SDS011;8151;47.824;12.092;2024-03-08T10:14:46;14.03;;;7.53;;
16093;SDS011;8151;47.824;12.092;2024-03-08T10:17:15;10.80;;;6.50;;
16093;SDS011;8151;47.824;12.092;2024-03-08T10:19:50;9.33;;;6.80;;
16093;SDS011;8151;47.824;12.092;2024-03-08T10:22:20;8.53;;;6.20;;
16093;SDS011;8151;47.824;12.092;2024-03-08T10:24:50;10.43;;;5.80;;
16093;SDS011;8151;47.824;12.092;2024-03-08T10:27:19;9.33;;;6.47;;
16093;SDS011;8151;47.824;12.092;2024-03-08T10:29:47;10.00;;;6.13;;
16093;SDS011;8151;47.824;12.092;2024-03-08T10:32:18;8.20;;;5.97;;
16093;SDS011;8151;47.824;12.092;2024-03-08T10:34:47;8.80;;;5.83;;
16093;SDS011;8151;47.824;12.092;2024-03-08T10:37:17;7.53;;;5.47;;
16093;SDS011;8151;47.824;12.092;2024-03-08T10:39:56;8.20;;;5.87;;
16093;SDS011;8151;47.824;12.092;2024-03-08T10:42:38;10.37;;;5.70;;
16093;SDS011;8151;47.824;12.092;2024-03-08T10:45:11;9.30;;;6.00;;
16093;SDS011;8151;47.824;12.092;2024-03-08T10:47:43;11.23;;;6.37;;
16093;SDS011;8151;47.824;12.092;2024-03-08T10:50:18;10.07;;;6.37;;
16093;SDS011;8151;47.824;12.092;2024-03-08T10:52:49;10.07;;;6.30;;
16093;SDS011;8151;47.824;12.092;2024-03-08T10:55:20;10.00;;;6.57;;
16093;SDS011;8151;47.824;12.092;2024-03-08T10:57:49;9.40;;;6.33;;
16093;SDS011;8151;47.824;12.092;2024-03-08T11:00:18;8.50;;;6.03;;
16093;SDS011;8151;47.824;12.092;2024-03-08T11:02:53;8.80;;;5.90;;
16093;SDS011;8151;47.824;12.092;2024-03-08T11:05:31;9.93;;;5.90;;
16093;SDS011;8151;47.824;12.092;2024-03-08T11:08:16;8.87;;;6.07;;
16093;SDS011;8151;47.824;12.092;2024-03-08T11:10:48;9.77;;;6.23;;
16093;SDS011;8151;47.824;12.092;2024-03-08T11:13:34;10.80;;;5.90;;
16093;SDS011;8151;47.824;12.092;2024-03-08T11:16:06;10.70;;;6.40;;
16093;SDS011;8151;47.824;12.092;2024-03-08T11:18:36;8.10;;;5.80;;
16093;SDS011;8151;47.824;12.092;2024-03-08T11:21:08;9.20;;;6.63;;
16093;SDS011;8151;47.824;12.092;2024-03-08T11:23:40;8.80;;;5.97;;
16093;SDS011;8151;47.824;12.092;2024-03-08T11:26:18;10.07;;;6.20;;
16093;SDS011;8151;47.824;12.092;2024-03-08T11:28:47;8.90;;;6.20;;
16093;SDS011;8151;47.824;12.092;2024-03-08T11:31:22;8.87;;;6.67;;
16093;SDS011;8151;47.824;12.092;2024-03-08T11:33:52;8.57;;;6.10;;
16093;SDS011;8151;47.824;12.092;2024-03-08T11:36:21;8.70;;;5.80;;
16093;SDS011;8151;47.824;12.092;2024-03-08T11:38:51;8.90;;;6.40;;
16093;SDS011;8151;47.824;12.092;2024-03-08T11:41:24;10.10;;;6.07;;
16093;SDS011;8151;47.824;12.092;2024-03-08T11:44:01;9.73;;;6.50;;
16093;SDS011;8151;47.824;12.092;2024-03-08T11:46:33;10.43;;;6.73;;
16093;SDS011;8151;47.824;12.092;2024-03-08T11:49:02;12.40;;;6.90;;
16093;SDS011;8151;47.824;12.092;2024-03-08T11:51:32;13.80;;;6.37;;
16093;SDS011;8151;47.824;12.092;2024-03-08T11:54:01;9.33;;;6.33;;
16093;SDS011;8151;47.824;12.092;2024-03-08T11:56:32;9.00;;;6.77;;
16093;SDS011;8151;47.824;12.092;2024-03-08T11:59:01;9.40;;;6.60;;
16093;SDS011;8151;47.824;12.092;2024-03-08T12:01:29;8.37;;;6.27;;
16093;SDS011;8151;47.824;12.092;2024-03-08T12:03:59;10.57;;;7.27;;
16093;SDS011;8151;47.824;12.092;2024-03-08T12:06:35;10.10;;;6.60;;
16093;SDS011;8151;47.824;12.092;2024-03-08T12:09:08;9.93;;;6.27;;
16093;SDS011;8151;47.824;12.092;2024-03-08T12:11:38;11.27;;;7.33;;
16093;SDS011;8151;47.824;12.092;2024-03-08T12:14:07;11.37;;;7.33;;
16093;SDS011;8151;47.824;12.092;2024-03-08T12:16:37;10.67;;;7.27;;
16093;SDS011;8151;47.824;12.092;2024-03-08T12:19:06;10.20;;;6.73;;
16093;SDS011;8151;47.824;12.092;2024-03-08T12:21:36;11.00;;;7.07;;
16093;SDS011;8151;47.824;12.092;2024-03-08T12:24:05;10.33;;;6.93;;
16093;SDS011;8151;47.824;12.092;2024-03-08T12:26:36;11.70;;;7.17;;
16093;SDS011;8151;47.824;12.092;2024-03-08T12:29:14;11.97;;;7.17;;
16093;SDS011;8151;47.824;12.092;2024-03-08T12:31:46;12.70;;;7.00;;
16093;SDS011;8151;47.824;12.092;2024-03-08T12:34:16;14.93;;;8.40;;
16093;SDS011;8151;47.824;12.092;2024-03-08T12:36:46;10.23;;;7.00;;
16093;SDS011;8151;47.824;12.092;2024-03-08T12:39:16;12.23;;;8.07;;
16093;SDS011;8151;47.824;12.092;2024-03-08T12:41:50;9.83;;;7.07;;
16093;SDS011;8151;47.824;12.092;2024-03-08T12:44:19;11.27;;;7.17;;
16093;SDS011;8151;47.824;12.092;2024-03-08T12:46:49;14.07;;;7.93;;
16093;SDS011;8151;47.824;12.092;2024-03-08T12:49:19;12.30;;;7.23;;
16093;SDS011;8151;47.824;12.092;2024-03-08T12:51:50;12.97;;;7.73;;
16093;SDS011;8151;47.824;12.092;2024-03-08T12:54:20;10.90;;;7.30;;
16093;SDS011;8151;47.824;12.092;2024-03-08T12:56:52;11.70;;;7.97;;
16093;SDS011;8151;47.824;12.092;2024-03-08T12:59:22;11.30;;;7.80;;
16093;SDS011;8151;47.824;12.092;2024-03-08T13:01:51;10.17;;;7.47;;
16093;SDS011;8151;47.824;12.092;2024-03-08T13:04:21;10.80;;;7.37;;
16093;SDS011;8151;47.824;12.092;2024-03-08T13:06:49;11.27;;;7.37;;
16093;SDS011;8151;47.824;12.092;2024-03-08T13:09:21;13.40;;;8.17;;
16093;SDS011;8151;47.824;12.092;2024-03-08T13:11:50;16.80;;;8.30;;
16093;SDS011;8151;47.824;12.092;2024-03-08T13:14:22;11.30;;;7.57;;
16093;SDS011;8151;47.824;12.092;2024-03-08T13:16:50;12.67;;;8.13;;
16093;SDS011;8151;47.824;12.092;2024-03-08T13:19:19;11.53;;;8.17;;
16093;SDS011;8151;47.824;12.092;2024-03-08T13:21:49;15.17;;;7.83;;
16093;SDS011;8151;47.824;12.092;2024-03-08T13:24:17;12.70;;;7.53;;
16093;SDS011;8151;47.824;12.092;2024-03-08T13:26:47;13.97;;;8.67;;
16093;SDS011;8151;47.824;12.092;2024-03-08T13:29:17;13.27;;;8.53;;
16093;SDS011;8151;47.824;12.092;2024-03-08T13:31:47;11.47;;;7.93;;
16093;SDS011;8151;47.824;12.092;2024-03-08T13:34:19;10.77;;;8.17;;
16093;SDS011;8151;47.824;12.092;2024-03-08T13:36:54;14.70;;;9.30;;
16093;SDS011;8151;47.824;12.092;2024-03-08T13:39:27;11.93;;;8.23;;
16093;SDS011;8151;47.824;12.092;2024-03-08T13:41:58;12.23;;;8.53;;
16093;SDS011;8151;47.824;12.092;2024-03-08T13:44:26;12.87;;;8.53;;
16093;SDS011;8151;47.824;12.092;2024-03-08T13:46:56;12.50;;;8.53;;
16093;SDS011;8151;47.824;12.092;2024-03-08T13:49:26;13.27;;;8.40;;
16093;SDS011;8151;47.824;12.092;2024-03-08T13:51:54;13.37;;;8.43;;
16093;SDS011;8151;47.824;12.092;2024-03-08T13:54:25;12.23;;;8.53;;
16093;SDS011;8151;47.824;12.092;2024-03-08T13:56:58;14.37;;;8.63;;
16093;SDS011;8151;47.824;12.092;2024-03-08T13:59:27;13.77;;;8.30;;
16093;SDS011;8151;47.824;12.092;2024-03-08T14:01:57;12.33;;;8.27;;
16093;SDS011;8151;47.824;12.092;2024-03-08T14:04:26;12.50;;;8.20;;
16093;SDS011;8151;47.824;12.092;2024-03-08T14:06:58;11.77;;;7.83;;
16093;SDS011;8151;47.824;12.092;2024-03-08T14:09:30;17.10;;;11.23;;
16093;SDS011;8151;47.824;12.092;2024-03-08T14:11:59;11.57;;;8.50;;
16093;SDS011;8151;47.824;12.092;2024-03-08T14:14:27;12.97;;;8.57;;
16093;SDS011;8151;47.824;12.092;2024-03-08T14:16:55;13.03;;;8.17;;
16093;SDS011;8151;47.824;12.092;2024-03-08T14:19:25;11.90;;;8.20;;
16093;SDS011;8151;47.824;12.092;2024-03-08T14:21:54;13.73;;;8.13;;
16093;SDS011;8151;47.824;12.092;2024-03-08T14:24:22;12.27;;;8.40;;
16093;SDS011;8151;47.824;12.092;2024-03-08T14:26:52;11.33;;;8.70;;
16093;SDS011;8151;47.824;12.092;2024-03-08T14:29:21;13.80;;;9.17;;
16093;SDS011;8151;47.824;12.092;2024-03-08T14:31:50;11.70;;;8.03;;
16093;SDS011;8151;47.824;12.092;2024-03-08T14:34:20;13.40;;;8.37;;
16093;SDS011;8151;47.824;12.092;2024-03-08T14:36:49;14.13;;;8.40;;
16093;SDS011;8151;47.824;12.092;2024-03-08T14:39:17;16.03;;;9.00;;
16093;SDS011;8151;47.824;12.092;2024-03-08T14:41:48;14.47;;;9.07;;
16093;SDS011;8151;47.824;12.092;2024-03-08T14:44:20;13.73;;;10.10;;
16093;SDS011;8151;47.824;12.092;2024-03-08T14:46:52;13.87;;;9.17;;
16093;SDS011;8151;47.824;12.092;2024-03-08T14:49:22;15.23;;;9.07;;